Terminal Aerodrome Forecast
Issued by NWS Shreveport, LA

Home | Current Version | Previous Version | Text Only | Print | Product List | Glossary On
Versions: 1 2 3 4 5 6 7 8 9 10 11 12 13 14
000
FTUS44 KSHV 162300
TAFLFK
TAF
KLFK 162324Z 1700/1724 14006KT P6SM BKN250
     FM170300 13004KT P6SM SCT250
     FM171000 11003KT P6SM SCT020 BKN250
     FM171200 10004KT 6SM BR BKN020
     FM171400 11007KT P6SM BKN020
     FM171700 11007KT P6SM SCT030 BKN035=

USA.gov is the U.S. government's official web portal to all federal, state and local government web resources and services.